Time;durP1;ratioP1;P1;durP2;ratioP2;P2;SDS_P1;SDS_P2;PMS_P1;PMS_P2;Temp;Humidity;BMP_temperature;BMP_pressure;BME280_temperature;BME280_humidity;BME280_pressure;Samples;Min_cycle;Max_cycle;Signal;HPM_P1;HPM_P2
2021/11/19 00:00:47;;;;;;;47.95;17.25;;;6.10;99.90;;;4.84;100.00;98989.25;5043616;28;20045;-69
2021/11/19 00:03:14;;;;;;;41.00;19.85;;;6.20;99.90;;;4.96;100.00;98984.13;5035487;28;20041;-69
2021/11/19 00:05:43;;;;;;;41.33;17.58;;;6.20;99.90;;;4.92;100.00;98987.53;5043005;28;20104;-69
2021/11/19 00:08:11;;;;;;;42.42;19.55;;;6.20;99.90;;;4.96;100.00;98978.97;5046284;28;20123;-69
2021/11/19 00:10:39;;;;;;;38.15;15.50;;;6.20;99.90;;;5.09;100.00;98980.72;5040189;28;20132;-69
2021/11/19 00:13:06;;;;;;;42.80;17.83;;;6.10;99.90;;;4.89;100.00;98978.09;5047386;28;20103;-69
2021/11/19 00:15:35;;;;;;;47.70;19.13;;;6.10;99.90;;;4.90;100.00;98977.22;5046217;28;20077;-69
2021/11/19 00:18:03;;;;;;;47.28;17.35;;;6.20;99.90;;;4.84;100.00;98979.81;5045884;28;20573;-69
2021/11/19 00:20:32;;;;;;;41.72;18.38;;;6.10;99.90;;;4.99;100.00;98977.25;5052076;28;20045;-69
2021/11/19 00:23:03;;;;;;;38.03;16.65;;;6.10;99.90;;;5.07;100.00;98977.28;5047763;28;20045;-69
2021/11/19 00:25:31;;;;;;;43.88;17.75;;;6.10;99.90;;;4.90;100.00;98977.22;5045337;28;20186;-69
2021/11/19 00:27:58;;;;;;;43.67;18.38;;;6.10;99.90;;;5.01;100.00;98974.69;5049033;28;20432;-69
2021/11/19 00:30:28;;;;;;;43.92;18.88;;;6.10;99.90;;;5.11;100.00;98980.69;5045525;28;20136;-69
2021/11/19 00:32:55;;;;;;;52.72;19.92;;;6.10;99.90;;;5.09;100.00;98974.72;5050822;28;20057;-69
2021/11/19 00:35:23;;;;;;;49.72;20.38;;;6.20;99.90;;;4.88;100.00;98984.09;5047223;28;20132;-69
2021/11/19 00:37:55;;;;;;;42.97;19.08;;;6.20;99.90;;;5.12;100.00;98982.44;5049029;28;20084;-69
2021/11/19 00:40:38;;;;;;;40.50;19.13;;;6.20;99.90;;;5.10;100.00;98990.16;5046030;28;20140;-69
2021/11/19 00:43:06;;;;;;;41.80;17.25;;;6.20;99.90;;;5.04;100.00;98987.59;5048632;28;20132;-69
2021/11/19 00:45:34;;;;;;;45.55;19.88;;;6.20;99.90;;;5.13;100.00;98981.56;5046856;28;20128;-69
2021/11/19 00:48:04;;;;;;;50.25;20.10;;;6.20;99.90;;;5.01;100.00;98996.13;5047961;28;20132;-69
2021/11/19 00:50:39;;;;;;;36.20;18.05;;;6.20;99.90;;;5.08;100.00;99001.28;5046538;28;20092;-69
2021/11/19 00:53:07;;;;;;;42.65;17.25;;;6.20;99.90;;;5.14;100.00;98994.44;5047086;28;20088;-69
2021/11/19 00:55:36;;;;;;;49.72;19.80;;;6.20;99.90;;;5.00;100.00;99002.13;5045725;28;20045;-69
2021/11/19 00:58:04;;;;;;;43.78;18.52;;;6.30;99.90;;;5.14;100.00;98996.16;5048577;28;20128;-69
2021/11/19 01:00:39;;;;;;;46.60;17.73;;;6.30;99.90;;;5.12;100.00;98985.88;5027746;28;20181;-69
2021/11/19 01:03:07;;;;;;;42.83;17.23;;;6.30;99.90;;;5.16;100.00;98990.16;5048418;28;20041;-69
2021/11/19 01:05:34;;;;;;;44.75;18.45;;;6.30;99.90;;;5.26;100.00;98990.19;5051871;28;20049;-69
2021/11/19 01:08:01;;;;;;;46.00;17.85;;;6.30;99.90;;;5.17;100.00;98986.72;5046806;28;20124;-70
2021/11/19 01:10:33;;;;;;;46.08;20.25;;;6.20;99.90;;;5.23;100.00;98984.16;5032529;28;20053;-69
2021/11/19 01:13:01;;;;;;;40.67;18.67;;;6.20;99.90;;;5.30;100.00;98991.91;5047289;28;20049;-69
2021/11/19 01:15:47;;;;;;;53.90;20.10;;;6.20;99.90;;;5.18;100.00;98991.03;5054176;28;20130;-69
2021/11/19 01:18:30;;;;;;;32.60;16.40;;;6.30;99.90;;;5.27;100.00;98995.34;5051917;28;20072;-69
2021/11/19 01:21:09;;;;;;;50.08;17.77;;;6.30;99.90;;;5.29;100.00;98995.31;5046444;28;20132;-69
2021/11/19 01:23:36;;;;;;;46.88;17.33;;;6.30;99.90;;;5.26;100.00;98998.75;5046348;28;20052;-69
2021/11/19 01:26:20;;;;;;;42.40;17.88;;;6.30;99.90;;;5.24;100.00;98998.78;5065743;28;20068;-69
2021/11/19 01:28:53;;;;;;;38.70;15.27;;;6.30;99.90;;;5.31;100.00;98999.63;5047343;28;20155;-69
2021/11/19 01:31:26;;;;;;;51.15;20.65;;;6.30;99.90;;;5.24;100.00;98997.88;5050588;28;20126;-69
2021/11/19 01:33:53;;;;;;;54.38;18.90;;;6.30;99.90;;;5.21;100.00;98997.91;5050820;28;20540;-69
2021/11/19 01:36:20;;;;;;;42.20;18.00;;;6.30;99.90;;;5.15;100.00;98992.72;5045323;28;20041;-69
2021/11/19 01:38:49;;;;;;;49.03;18.85;;;6.20;99.90;;;5.02;100.00;98994.44;5053767;28;20084;-69
2021/11/19 01:41:23;;;;;;;55.70;19.63;;;6.20;99.90;;;5.16;100.00;98992.75;5051472;28;20457;-69
2021/11/19 01:43:51;;;;;;;49.60;19.25;;;6.20;99.90;;;5.04;100.00;98995.31;5053711;28;20095;-69
2021/11/19 01:46:24;;;;;;;63.92;20.23;;;6.20;99.90;;;4.79;100.00;98995.22;5065185;28;20195;-69
2021/11/19 01:48:54;;;;;;;48.80;18.05;;;6.20;99.90;;;4.77;100.00;98985.78;5049245;28;20102;-69
2021/11/19 01:51:27;;;;;;;52.05;18.08;;;6.20;99.90;;;4.93;100.00;98992.69;5040565;28;20049;-69
2021/11/19 01:54:18;;;;;;;62.53;21.65;;;6.20;99.90;;;4.80;100.00;98990.94;5049483;28;20064;-69
2021/11/19 01:56:53;;;;;;;66.68;21.25;;;6.20;99.90;;;4.87;100.00;98994.38;5051094;28;20053;-69
2021/11/19 01:59:38;;;;;;;51.30;17.92;;;6.20;99.90;;;4.99;100.00;98990.13;5047619;28;20500;-69
2021/11/19 02:02:31;;;;;;;46.42;16.77;;;6.10;99.90;;;5.09;100.00;98991.00;5049436;28;20127;-69
2021/11/19 02:05:07;;;;;;;51.22;18.40;;;6.10;99.90;;;5.03;100.00;98997.00;5038734;28;20054;-69
2021/11/19 02:07:46;;;;;;;50.63;20.90;;;6.10;99.90;;;5.05;100.00;98991.00;5041786;28;20077;-69
2021/11/19 02:10:45;;;;;;;58.65;19.25;;;6.10;99.90;;;4.91;100.00;98993.53;5049034;28;20052;-69
2021/11/19 02:13:57;;;;;;;50.25;18.45;;;6.20;99.90;;;5.15;100.00;98987.56;5062586;28;20133;-69
2021/11/19 02:16:36;;;;;;;48.92;19.75;;;6.20;99.90;;;4.97;100.00;98978.09;5059440;28;20131;-69
2021/11/19 02:19:36;;;;;;;62.78;21.27;;;6.10;99.90;;;4.80;100.00;98983.22;5056199;28;20076;-69
2021/11/19 02:22:17;;;;;;;53.53;18.92;;;6.10;99.90;;;4.80;100.00;98981.50;5040670;28;20124;-69
2021/11/19 02:24:53;;;;;;;54.30;19.67;;;6.10;99.90;;;4.72;100.00;98974.59;5054203;28;20125;-69
2021/11/19 02:27:28;;;;;;;60.35;22.15;;;6.10;99.90;;;4.75;100.00;98983.19;5052338;28;20120;-69
2021/11/19 02:30:14;;;;;;;54.67;19.02;;;6.10;99.90;;;4.88;100.00;98978.97;5029831;28;20077;-69
2021/11/19 02:32:47;;;;;;;68.25;21.83;;;6.10;99.90;;;4.67;100.00;98969.44;5047297;28;20517;-69
2021/11/19 02:35:22;;;;;;;57.45;20.45;;;6.10;99.90;;;4.87;100.00;98973.81;5031282;28;20081;-70
2021/11/19 02:37:58;;;;;;;69.13;21.98;;;6.10;99.90;;;4.65;100.00;98986.56;5044033;28;20071;-69
2021/11/19 02:40:32;;;;;;;54.88;20.83;;;6.10;99.90;;;4.84;100.00;98969.50;5032020;28;20124;-69
2021/11/19 02:43:11;;;;;;;76.15;23.95;;;6.00;99.90;;;4.77;100.00;98983.22;5037306;28;20158;-69
2021/11/19 02:45:44;;;;;;;64.50;21.63;;;6.10;99.90;;;4.69;100.00;98987.47;5037816;28;20069;-69
2021/11/19 02:48:15;;;;;;;;;;;6.00;99.90;;;4.80;100.00;98978.06;5051127;28;20133;-69
2021/11/19 02:50:43;;;;;;;54.75;20.92;;;6.00;99.90;;;4.81;100.00;98987.50;5049209;28;19964;-69
2021/11/19 02:53:12;;;;;;;65.35;22.35;;;6.00;99.90;;;4.78;100.00;98980.63;5049111;28;20088;-69
2021/11/19 02:55:44;;;;;;;95.45;25.80;;;5.90;99.90;;;4.63;100.00;98972.00;5047203;28;20127;-69
2021/11/19 02:58:26;;;;;;;64.87;21.70;;;6.00;99.90;;;4.64;100.00;98974.59;5032375;28;20145;-69
2021/11/19 03:01:16;;;;;;;87.32;25.23;;;5.90;99.90;;;4.58;100.00;98972.88;5040903;28;20084;-69
2021/11/19 03:04:03;;;;;;;59.60;21.70;;;5.90;99.90;;;4.64;100.00;98976.31;5048481;28;20077;-69
2021/11/19 03:06:36;;;;;;;89.95;25.08;;;5.90;99.90;;;4.54;100.00;98980.56;5030784;28;20129;-69
2021/11/19 03:09:05;;;;;;;84.28;24.85;;;5.90;99.90;;;4.53;100.00;98976.25;5029907;28;20132;-69
2021/11/19 03:11:33;;;;;;;45.90;19.15;;;5.90;99.90;;;4.67;100.00;98973.72;5057758;28;20132;-69
2021/11/19 03:14:01;;;;;;;45.72;19.15;;;5.80;99.90;;;4.76;100.00;98974.63;5049164;28;20507;-69
2021/11/19 03:16:28;;;;;;;78.70;22.98;;;5.80;99.90;;;4.65;100.00;98983.16;5042965;28;20124;-69
2021/11/19 03:18:55;;;;;;;59.90;23.85;;;5.80;99.90;;;4.65;100.00;98991.72;5050304;28;20049;-69
2021/11/19 03:21:24;;;;;;;80.20;24.52;;;5.80;99.90;;;4.56;100.00;99005.44;5046750;28;20073;-69
2021/11/19 03:23:55;;;;;;;54.38;21.02;;;5.90;99.90;;;4.75;100.00;99000.34;5048751;28;20045;-69
2021/11/19 03:26:22;;;;;;;61.05;20.55;;;5.90;99.90;;;4.78;100.00;99003.78;5051889;28;20422;-69
2021/11/19 03:28:49;;;;;;;88.93;23.88;;;5.90;99.90;;;4.67;100.00;99002.88;5043376;28;20136;-69
2021/11/19 03:31:16;;;;;;;63.97;20.50;;;5.90;99.90;;;4.77;100.00;99004.66;5045813;28;20127;-69
2021/11/19 03:33:49;;;;;;;84.10;25.80;;;5.80;99.90;;;4.65;100.00;99004.59;5033043;28;20133;-69
2021/11/19 03:36:19;;;;;;;92.18;24.00;;;5.90;99.90;;;4.66;100.00;98998.59;5038257;28;20044;-69
2021/11/19 03:38:49;;;;;;;74.43;22.30;;;5.90;99.90;;;4.74;100.00;99006.34;5047414;28;20469;-69
2021/11/19 03:41:23;;;;;;;80.40;24.45;;;5.90;99.90;;;4.72;100.00;99006.34;5059292;28;20097;-69
2021/11/19 03:44:00;;;;;;;58.70;20.80;;;5.90;99.90;;;4.86;100.00;99014.13;5067539;28;20554;-69
2021/11/19 03:46:49;;;;;;;52.65;17.77;;;5.90;99.90;;;4.86;100.00;99011.53;5045449;28;20084;-69
2021/11/19 03:49:18;;;;;;;65.18;21.67;;;5.90;99.90;;;4.73;100.00;99008.06;5046550;28;20110;-69
2021/11/19 03:51:53;;;;;;;58.75;22.08;;;5.90;99.90;;;4.75;100.00;99001.22;5038769;28;20107;-69
2021/11/19 03:54:24;;;;;;;51.08;20.35;;;6.00;99.90;;;4.94;100.00;98993.53;5054781;28;20056;-69
2021/11/19 03:56:53;;;;;;;57.75;21.55;;;5.90;99.90;;;4.78;100.00;98997.78;5048273;28;20529;-69
2021/11/19 03:59:20;;;;;;;59.95;22.20;;;5.90;99.90;;;4.89;100.00;98996.09;5036391;28;20083;-69
2021/11/19 04:01:51;;;;;;;65.97;20.55;;;6.00;99.90;;;4.90;100.00;99004.66;5041822;28;20080;-69
2021/11/19 04:04:23;;;;;;;65.72;22.25;;;6.00;99.90;;;4.77;100.00;99002.06;5042866;28;20056;-69
2021/11/19 04:06:51;;;;;;;62.40;19.33;;;6.00;99.90;;;4.69;100.00;99003.75;5031363;28;20045;-69
2021/11/19 04:09:18;;;;;;;46.40;18.50;;;6.00;99.90;;;4.84;100.00;98994.38;5047927;28;20472;-69
2021/11/19 04:11:46;;;;;;;49.60;20.63;;;5.90;99.90;;;4.80;100.00;98994.34;5039517;28;20117;-69
2021/11/19 04:14:13;;;;;;;63.80;22.17;;;6.00;99.90;;;4.66;100.00;98996.03;5047367;28;20084;-69
2021/11/19 04:16:47;;;;;;;42.58;17.80;;;6.00;99.90;;;4.73;100.00;99002.06;5044375;28;20439;-69
2021/11/19 04:19:17;;;;;;;55.58;19.90;;;6.00;99.90;;;4.68;100.00;98999.47;5036536;28;20128;-69
2021/11/19 04:21:46;;;;;;;49.47;20.23;;;5.90;99.90;;;4.75;100.00;98993.50;5028685;28;20123;-69
2021/11/19 04:24:19;;;;;;;52.85;21.58;;;5.90;99.90;;;4.70;100.00;98991.75;5042994;28;20049;-69
2021/11/19 04:26:46;;;;;;;63.20;20.95;;;5.90;99.90;;;4.55;100.00;98997.69;5061599;28;20099;-69
2021/11/19 04:29:29;;;;;;;58.40;21.35;;;5.90;99.90;;;4.70;100.00;98999.44;5029910;28;20107;-69
2021/11/19 04:31:58;;;;;;;67.50;23.90;;;5.90;99.90;;;4.55;100.00;98989.97;5048304;28;20122;-69
2021/11/19 04:34:26;;;;;;;65.25;23.25;;;5.90;99.90;;;4.66;100.00;99000.31;5032937;28;20471;-69
2021/11/19 04:36:53;;;;;;;56.85;23.80;;;5.90;99.90;;;4.74;100.00;99006.34;5049095;28;20272;-69
2021/11/19 04:39:21;;;;;;;74.20;24.98;;;5.90;99.90;;;4.62;100.00;98999.44;5062878;28;20063;-69
2021/11/19 04:41:49;;;;;;;87.53;25.95;;;5.80;99.90;;;4.51;100.00;99004.53;5044015;28;20144;-69
2021/11/19 04:44:16;;;;;;;83.90;24.27;;;5.90;99.90;;;4.52;100.00;98995.97;5033264;28;20073;-69
2021/11/19 04:46:44;;;;;;;64.90;25.55;;;5.90;99.90;;;4.54;100.00;99006.28;5065135;28;20128;-69
2021/11/19 04:49:12;;;;;;;66.75;24.60;;;5.90;99.90;;;4.56;100.00;98999.41;5057668;28;20080;-69
2021/11/19 04:51:43;;;;;;;63.97;23.88;;;5.90;99.90;;;4.52;100.00;98995.13;5056523;28;20080;-69
2021/11/19 04:54:11;;;;;;;70.25;25.13;;;5.90;99.90;;;4.52;100.00;98988.25;5050174;28;20061;-69
2021/11/19 04:56:41;;;;;;;70.70;23.77;;;5.90;99.90;;;4.53;100.00;98992.53;5061683;28;20132;-69
2021/11/19 04:59:09;;;;;;;58.15;21.65;;;5.80;99.90;;;4.53;100.00;98992.53;5050694;28;20125;-69
2021/11/19 05:01:45;;;;;;;62.95;23.35;;;5.80;99.90;;;4.54;100.00;98989.13;5037949;28;20123;-69
2021/11/19 05:04:12;;;;;;;50.90;21.98;;;5.80;99.90;;;4.58;100.00;98988.28;5059606;28;20525;-69
2021/11/19 05:06:39;;;;;;;68.38;23.17;;;5.80;99.90;;;4.56;100.00;98989.13;5062811;28;20075;-69
2021/11/19 05:09:08;;;;;;;53.80;19.85;;;5.80;99.90;;;4.54;100.00;98983.13;5061196;28;20045;-69
2021/11/19 05:11:52;;;;;;;50.95;20.67;;;5.80;99.90;;;4.64;100.00;98976.31;5061529;28;20044;-69
2021/11/19 05:14:20;;;;;;;47.28;19.80;;;5.80;99.90;;;4.64;100.00;98978.88;5049695;28;20084;-69
2021/11/19 05:16:48;;;;;;;41.92;20.73;;;5.80;99.90;;;4.73;100.00;98976.34;5046832;28;20148;-68
2021/11/19 05:19:16;;;;;;;59.25;22.55;;;5.80;99.90;;;4.77;100.00;98980.66;5042347;28;20080;-69
2021/11/19 05:21:45;;;;;;;55.78;22.40;;;5.80;99.90;;;4.60;100.00;98981.41;5032573;28;20063;-69
2021/11/19 05:24:12;;;;;;;36.15;19.33;;;5.90;99.90;;;4.79;100.00;98977.22;5048271;28;20049;-69
2021/11/19 05:26:44;;;;;;;43.70;19.23;;;5.90;99.90;;;4.83;100.00;98978.06;5057532;28;20037;-69
2021/11/19 05:29:11;;;;;;;41.78;19.00;;;5.90;99.90;;;4.91;100.00;98978.97;5052345;28;20095;-69
2021/11/19 05:31:39;;;;;;;40.60;19.00;;;5.90;99.90;;;4.96;100.00;98982.41;5048093;28;20455;-69
2021/11/19 05:34:10;;;;;;;42.45;19.83;;;6.00;99.90;;;4.90;100.00;98987.50;5024397;28;20045;-69
2021/11/19 05:36:37;;;;;;;41.13;18.80;;;6.00;99.90;;;4.97;100.00;98991.84;5057360;28;20073;-69
2021/11/19 05:39:04;;;;;;;45.47;20.58;;;6.00;99.90;;;4.92;100.00;98984.97;5057658;28;20084;-69
2021/11/19 05:41:32;;;;;;;39.28;20.25;;;6.00;99.90;;;4.91;100.00;98983.25;5049685;28;20084;-69
2021/11/19 05:44:01;;;;;;;45.50;18.42;;;6.10;99.90;;;5.08;100.00;98996.16;5061023;28;20409;-69
2021/11/19 05:46:32;;;;;;;49.50;20.13;;;6.10;99.90;;;4.98;100.00;98990.13;5058849;28;20536;-69
2021/11/19 05:48:59;;;;;;;42.15;20.33;;;6.10;99.90;;;4.95;100.00;98983.25;5055766;28;20128;-69
2021/11/19 05:51:28;;;;;;;42.55;21.15;;;6.10;99.90;;;5.02;100.00;98974.69;5047231;28;20502;-69
2021/11/19 05:53:56;;;;;;;42.35;19.27;;;6.10;99.90;;;5.03;100.00;98983.28;5056024;28;20128;-69
2021/11/19 05:56:24;;;;;;;57.40;22.35;;;6.10;99.90;;;4.94;100.00;98978.09;5056136;28;20045;-69
2021/11/19 05:58:52;;;;;;;49.40;21.27;;;6.10;99.90;;;5.02;100.00;98985.00;5057029;28;20145;-69
2021/11/19 06:01:21;;;;;;;36.75;19.60;;;6.10;99.90;;;5.02;100.00;98986.72;5036656;28;20121;-69
2021/11/19 06:03:50;;;;;;;53.03;23.55;;;6.10;99.90;;;4.93;100.00;98991.84;5036456;28;20422;-69
2021/11/19 06:06:18;;;;;;;41.67;20.30;;;6.10;99.90;;;4.96;100.00;98990.13;5031824;28;20045;-69
2021/11/19 06:08:46;;;;;;;38.78;18.25;;;6.10;99.90;;;5.00;100.00;98994.41;5030336;28;20042;-69
2021/11/19 06:11:24;;;;;;;47.55;21.95;;;6.10;99.90;;;5.02;100.00;99003.00;5038054;28;20052;-69
2021/11/19 06:13:57;;;;;;;55.97;23.17;;;6.10;99.90;;;4.85;100.00;99014.09;5039917;28;20195;-69
2021/11/19 06:16:30;;;;;;;44.22;19.98;;;6.20;99.90;;;4.88;100.00;99016.66;5056471;28;20091;-69
2021/11/19 06:19:04;;;;;;;39.95;18.25;;;6.20;99.90;;;5.09;100.00;99016.75;5047905;28;20102;-69
2021/11/19 06:21:38;;;;;;;56.53;23.63;;;6.10;99.90;;;4.99;100.00;99028.72;5046264;28;20091;-69
2021/11/19 06:24:12;;;;;;;60.80;24.38;;;6.20;99.90;;;4.99;100.00;99020.13;5042801;28;20049;-69
2021/11/19 06:26:44;;;;;;;60.33;23.42;;;6.20;99.90;;;4.89;100.00;99021.84;5058998;28;20041;-69
2021/11/19 06:29:12;;;;;;;42.47;20.90;;;6.20;99.90;;;4.94;100.00;99021.84;5052984;28;20091;-69
2021/11/19 06:31:50;;;;;;;51.08;21.85;;;6.10;99.90;;;4.84;100.00;99014.97;5052381;28;20101;-69
2021/11/19 06:34:18;;;;;;;49.42;19.98;;;6.10;99.90;;;5.09;100.00;99014.19;5052397;28;20084;-69
2021/11/19 06:36:45;;;;;;;44.13;19.10;;;6.10;99.90;;;5.03;100.00;99009.84;5056916;28;20141;-69
2021/11/19 06:39:32;;;;;;;63.22;24.42;;;6.10;99.90;;;5.07;100.00;99021.03;5057796;28;20127;-69
2021/11/19 06:42:00;;;;;;;63.55;24.40;;;6.10;99.90;;;5.03;100.00;99016.72;5059308;28;20129;-69
2021/11/19 06:44:28;;;;;;;50.47;21.85;;;6.10;99.90;;;4.94;100.00;99021.84;5055307;28;20052;-69
2021/11/19 06:46:55;;;;;;;47.35;21.75;;;6.10;99.90;;;4.95;100.00;99014.16;5057472;28;20149;-69
2021/11/19 06:49:22;;;;;;;48.83;20.85;;;6.10;99.90;;;5.09;100.00;99014.19;5056225;28;20134;-69
2021/11/19 06:51:49;;;;;;;42.70;19.60;;;6.10;99.90;;;5.07;100.00;99010.75;5049587;28;20072;-69
2021/11/19 06:54:16;;;;;;;44.42;20.38;;;6.10;99.90;;;4.94;100.00;99025.28;5055483;28;20084;-69
2021/11/19 06:56:43;;;;;;;55.03;22.13;;;6.10;99.90;;;4.91;100.00;99012.41;5049759;28;20077;-69
2021/11/19 06:59:11;;;;;;;45.60;20.25;;;6.10;99.90;;;5.10;100.00;99015.03;5047796;28;20133;-69
2021/11/19 07:01:38;;;;;;;67.47;23.92;;;6.10;99.90;;;4.99;100.00;99026.13;5050609;28;20508;-69
2021/11/19 07:04:06;;;;;;;50.33;22.25;;;6.10;99.90;;;4.95;100.00;99037.31;5045322;28;20099;-69
2021/11/19 07:06:36;;;;;;;69.22;25.15;;;6.10;99.90;;;4.94;100.00;99039.84;5050616;28;20080;-69
2021/11/19 07:09:06;;;;;;;61.75;21.33;;;6.20;99.90;;;4.86;100.00;99032.13;5063205;28;20048;-69
2021/11/19 07:11:35;;;;;;;57.40;21.20;;;6.20;99.90;;;4.86;100.00;99037.28;5050323;28;20489;-69
2021/11/19 07:14:06;;;;;;;48.80;19.65;;;6.20;99.90;;;4.86;100.00;99041.53;5056322;28;20044;-69
2021/11/19 07:16:35;;;;;;;52.90;21.88;;;6.20;99.90;;;4.98;100.00;99047.59;5049821;28;20045;-69
2021/11/19 07:19:06;;;;;;;76.72;23.38;;;6.20;99.90;;;4.94;100.00;99051.00;5053739;28;20048;-69
2021/11/19 07:21:34;;;;;;;111.35;28.98;;;6.20;99.90;;;4.75;100.00;99055.22;5042033;28;20077;-69
2021/11/19 07:24:02;;;;;;;39.20;19.58;;;6.20;99.90;;;4.99;100.00;99051.88;5046732;28;20068;-69
2021/11/19 07:26:30;;;;;;;53.05;19.77;;;6.20;99.90;;;4.77;100.00;99060.38;5064571;28;20083;-69
2021/11/19 07:28:58;;;;;;;60.08;23.20;;;6.10;99.90;;;4.90;100.00;99063.84;5053414;28;20559;-69
2021/11/19 07:31:26;;;;;;;61.67;23.45;;;6.10;99.90;;;4.87;100.00;99063.84;5051463;28;20103;-69
2021/11/19 07:33:53;;;;;;;91.47;26.27;;;6.00;99.90;;;4.77;100.00;99057.81;5050546;28;20492;-69
2021/11/19 07:36:23;;;;;;;100.70;27.52;;;6.10;99.90;;;4.84;100.00;99071.56;5050817;28;20182;-69
2021/11/19 07:38:53;;;;;;;57.63;24.40;;;6.10;99.90;;;4.93;100.00;99062.16;5047153;28;20132;-69
2021/11/19 07:41:22;;;;;;;65.47;23.50;;;6.10;99.90;;;4.91;100.00;99063.88;5064259;28;20063;-69
2021/11/19 07:43:50;;;;;;;135.18;29.65;;;6.10;99.90;;;4.64;100.00;99063.75;5047892;28;20128;-70
2021/11/19 07:46:22;;;;;;;47.85;22.05;;;6.10;99.90;;;4.77;100.00;99068.97;5056700;28;20124;-69
2021/11/19 07:48:49;;;;;;;71.07;24.60;;;6.10;99.90;;;4.87;100.00;99066.44;5063083;28;20090;-69
2021/11/19 07:51:22;;;;;;;54.95;21.98;;;6.10;99.90;;;4.99;100.00;99064.75;5051442;28;20094;-69
2021/11/19 07:53:51;;;;;;;57.03;22.15;;;6.10;99.90;;;4.94;100.00;99061.28;5054413;28;20136;-69
2021/11/19 07:56:27;;;;;;;59.67;21.60;;;6.10;99.90;;;5.05;100.00;99061.34;5051823;28;20063;-69
2021/11/19 07:59:00;;;;;;;43.88;20.90;;;6.10;99.90;;;5.13;100.00;99067.38;5052481;28;20181;-69
2021/11/19 08:01:27;;;;;;;64.68;20.00;;;6.20;99.90;;;5.11;100.00;99070.78;5063809;28;20052;-69
2021/11/19 08:03:54;;;;;;;49.50;20.55;;;6.20;99.90;;;5.14;100.00;99070.81;5045634;28;20040;-69
2021/11/19 08:06:26;;;;;;;46.20;21.48;;;6.20;99.90;;;5.15;100.00;99064.78;5047744;28;20470;-71
2021/11/19 08:08:55;;;;;;;39.80;19.00;;;6.30;99.90;;;5.09;100.00;99065.66;5046693;28;20472;-70
2021/11/19 08:11:22;;;;;;;46.72;20.88;;;6.20;99.90;;;5.17;100.00;99073.38;5048526;28;20373;-71
2021/11/19 08:13:50;;;;;;;94.43;27.23;;;6.20;99.90;;;4.81;100.00;99080.09;5045898;28;20046;-71
2021/11/19 08:16:19;;;;;;;46.17;19.75;;;6.20;99.90;;;5.09;100.00;99075.09;5047752;28;20053;-71
2021/11/19 08:18:56;;;;;;;74.35;22.95;;;6.30;99.90;;;4.92;100.00;99091.31;5047714;28;20049;-71
2021/11/19 08:21:24;;;;;;;49.63;21.88;;;6.30;99.90;;;5.14;100.00;99076.81;5056147;28;20045;-71
2021/11/19 08:24:00;;;;;;;58.92;20.50;;;6.30;99.90;;;4.96;100.00;99079.31;5064020;28;20060;-71
2021/11/19 08:26:43;;;;;;;43.55;19.83;;;6.20;99.90;;;5.06;100.00;99077.63;5051392;28;20567;-71
2021/11/19 08:29:24;;;;;;;82.13;24.98;;;6.20;99.90;;;4.91;100.00;99088.75;5040711;28;20045;-71
2021/11/19 08:31:53;;;;;;;37.20;18.60;;;6.20;99.90;;;5.03;100.00;99084.50;5051691;28;20131;-71
2021/11/19 08:34:23;;;;;;;57.85;20.42;;;6.20;99.90;;;5.12;100.00;99085.38;5034312;28;20056;-71
2021/11/19 08:36:51;;;;;;;52.10;21.15;;;6.30;99.90;;;5.11;100.00;99071.66;5062547;28;20098;-71
2021/11/19 08:39:22;;;;;;;39.95;17.23;;;6.30;99.90;;;5.17;100.00;99069.09;5056305;28;20106;-71
2021/11/19 08:41:50;;;;;;;45.15;19.67;;;6.30;99.90;;;4.85;100.00;99066.41;5064416;28;20050;-71
2021/11/19 08:44:20;;;;;;;62.95;23.38;;;6.30;99.90;;;4.86;100.00;99075.88;5047315;28;20128;-71
2021/11/19 08:47:09;;;;;;;64.38;20.95;;;6.30;99.90;;;4.80;100.00;99066.38;5062496;28;20045;-71
2021/11/19 08:49:37;;;;;;;78.70;25.70;;;6.30;99.90;;;4.84;100.00;99059.56;5054469;28;20140;-71
2021/11/19 08:52:12;;;;;;;57.00;21.90;;;6.40;99.90;;;4.93;100.00;99058.75;5062038;28;20124;-71
2021/11/19 08:54:40;;;;;;;31.70;16.63;;;6.30;99.90;;;4.95;100.00;99063.03;5036025;28;20068;-70
2021/11/19 08:57:16;;;;;;;52.30;19.60;;;6.30;99.90;;;4.86;100.00;99060.44;5055091;28;20436;-70
2021/11/19 08:59:46;;;;;;;51.45;20.52;;;6.40;99.90;;;4.94;100.00;99066.44;5051841;28;20052;-71
2021/11/19 09:02:17;;;;;;;34.38;17.15;;;6.30;99.90;;;5.20;100.00;99076.84;5045618;28;20476;-71
2021/11/19 09:04:58;;;;;;;49.20;19.50;;;6.40;99.90;;;5.20;100.00;99083.69;5060374;28;20137;-71
2021/11/19 09:07:27;;;;;;;46.38;18.88;;;6.40;99.90;;;5.34;100.00;99088.91;5056069;28;20080;-71
2021/11/19 09:09:55;;;;;;;56.13;21.50;;;6.40;99.90;;;5.44;100.00;99094.06;5055560;28;20131;-70
2021/11/19 09:12:26;;;;;;;31.67;16.88;;;6.50;99.90;;;5.52;100.00;99093.22;5054407;28;20460;-71
2021/11/19 09:14:53;;;;;;;44.83;19.33;;;6.50;99.90;;;5.33;100.00;99079.44;5041667;28;20074;-71
2021/11/19 09:17:24;;;;;;;54.33;21.38;;;6.50;99.90;;;5.45;100.00;99079.47;5046590;28;20434;-71
2021/11/19 09:19:55;;;;;;;59.08;20.88;;;6.60;99.90;;;5.52;100.00;99078.63;5048764;28;20237;-71
2021/11/19 09:22:49;;;;;;;31.65;17.00;;;6.70;99.90;;;5.69;100.00;99081.22;5043238;28;20119;-71
2021/11/19 09:25:20;;;;;;;33.65;18.13;;;6.80;99.90;;;5.71;100.00;99092.41;5056010;28;20059;-71
2021/11/19 09:27:47;;;;;;;28.45;15.02;;;6.90;99.90;;;5.95;100.00;99096.72;5053991;28;20568;-71
2021/11/19 09:30:31;;;;;;;35.20;17.63;;;7.00;99.90;;;6.10;100.00;99100.19;5047873;28;20649;-71
2021/11/19 09:32:59;;;;;;;30.83;16.90;;;7.10;99.90;;;6.22;100.00;99101.00;5047938;28;20076;-71
2021/11/19 09:35:30;;;;;;;25.88;15.23;;;7.10;99.90;;;6.08;100.00;99102.75;5053129;28;20429;-71
2021/11/19 09:37:58;;;;;;;28.75;15.63;;;7.20;99.90;;;6.21;100.00;99106.19;5052305;28;20099;-71
2021/11/19 09:40:45;;;;;;;33.83;16.50;;;7.20;99.90;;;6.33;100.00;99106.19;5045730;28;20052;-71
2021/11/19 09:43:53;;;;;;;34.22;17.27;;;7.30;99.90;;;6.34;100.00;99107.03;5059659;28;20131;-71
2021/11/19 09:46:42;;;;;;;29.33;14.93;;;7.30;99.90;;;6.31;100.00;99104.47;5044171;28;20080;-68
2021/11/19 09:50:05;;;;;;;25.60;15.05;;;7.40;99.90;;;6.32;100.00;99106.16;5061553;28;20738;-68
2021/11/19 09:53:11;;;;;;;27.57;15.13;;;7.50;99.90;;;6.30;100.00;99098.44;5045136;28;20051;-71
2021/11/19 09:55:53;;;;;;;43.00;18.30;;;7.50;99.90;;;6.13;100.00;99101.03;5045563;28;20095;-71
2021/11/19 09:58:56;;;;;;;26.08;15.18;;;7.50;99.90;;;6.40;100.00;99107.88;5048885;28;20103;-71
2021/11/19 10:01:42;;;;;;;26.13;15.38;;;7.40;99.90;;;6.46;100.00;99096.72;5051790;28;20045;-71
2021/11/19 10:04:36;;;;;;;23.90;13.27;;;7.50;99.90;;;6.53;100.00;99095.84;5050600;28;20044;-71
2021/11/19 10:07:18;;;;;;;31.88;15.77;;;7.50;99.90;;;6.47;100.00;99091.53;5059450;28;20053;-71
2021/11/19 10:10:19;;;;;;;23.83;12.98;;;7.60;99.90;;;6.62;100.00;99095.81;5051822;28;20049;-71
2021/11/19 10:13:22;;;;;;;25.05;12.52;;;7.60;99.90;;;6.42;100.00;99097.56;5058242;28;20076;-71
2021/11/19 10:16:19;;;;;;;20.30;11.77;;;7.60;99.90;;;6.56;100.00;99089.81;5051171;28;20044;-71
2021/11/19 10:19:05;;;;;;;22.38;13.30;;;7.70;99.90;;;6.58;100.00;99090.66;5055811;28;20127;-71
2021/11/19 10:22:07;;;;;;;26.90;15.05;;;7.70;99.90;;;6.62;100.00;99079.47;5039554;28;20057;-71
2021/11/19 10:25:35;;;;;;;32.33;15.35;;;7.80;99.90;;;6.50;100.00;99085.53;5057082;28;20132;-71
2021/11/19 10:28:13;;;;;;;23.55;13.50;;;7.80;99.90;;;6.39;100.00;99087.28;5019470;28;20041;-71
2021/11/19 10:30:45;;;;;;;20.25;12.43;;;7.70;99.90;;;6.65;100.00;99084.63;5030432;28;20077;-71
2021/11/19 10:33:32;;;;;;;24.42;13.63;;;7.80;99.90;;;6.55;100.00;99085.53;5048062;28;20132;-71
2021/11/19 10:36:26;;;;;;;22.77;13.25;;;7.80;99.90;;;6.42;100.00;99097.56;5047543;28;20087;-71
2021/11/19 10:39:23;;;;;;;19.67;10.40;;;7.80;99.90;;;6.41;100.00;99078.66;5054808;28;20073;-71